sensor_id;sensor_type;location;lat;lon;timestamp;P1;durP1;ratioP1;P2;durP2;ratioP2
4268;SDS011;2148;48.554;7.834;2022-09-27T00:00:38;1.93;;;1.63;;
4268;SDS011;2148;48.554;7.834;2022-09-27T00:03:06;2.13;;;1.80;;
4268;SDS011;2148;48.554;7.834;2022-09-27T00:05:31;2.40;;;1.60;;
4268;SDS011;2148;48.554;7.834;2022-09-27T00:07:56;2.63;;;1.70;;
4268;SDS011;2148;48.554;7.834;2022-09-27T00:10:21;2.03;;;1.50;;
4268;SDS011;2148;48.554;7.834;2022-09-27T00:12:47;3.03;;;1.70;;
4268;SDS011;2148;48.554;7.834;2022-09-27T00:15:12;2.23;;;1.60;;
4268;SDS011;2148;48.554;7.834;2022-09-27T00:17:38;1.90;;;1.70;;
4268;SDS011;2148;48.554;7.834;2022-09-27T00:20:04;2.60;;;1.63;;
4268;SDS011;2148;48.554;7.834;2022-09-27T00:22:31;1.97;;;1.70;;
4268;SDS011;2148;48.554;7.834;2022-09-27T00:24:56;1.90;;;1.73;;
4268;SDS011;2148;48.554;7.834;2022-09-27T00:27:22;1.90;;;1.80;;
4268;SDS011;2148;48.554;7.834;2022-09-27T00:29:47;2.37;;;1.93;;
4268;SDS011;2148;48.554;7.834;2022-09-27T00:32:12;3.93;;;1.87;;
4268;SDS011;2148;48.554;7.834;2022-09-27T00:34:38;3.47;;;1.80;;
4268;SDS011;2148;48.554;7.834;2022-09-27T00:37:04;1.90;;;1.80;;
4268;SDS011;2148;48.554;7.834;2022-09-27T00:39:30;3.73;;;1.60;;
4268;SDS011;2148;48.554;7.834;2022-09-27T00:41:55;1.73;;;1.60;;
4268;SDS011;2148;48.554;7.834;2022-09-27T00:46:49;3.20;;;2.03;;
4268;SDS011;2148;48.554;7.834;2022-09-27T00:49:47;1.63;;;1.43;;
4268;SDS011;2148;48.554;7.834;2022-09-27T00:52:16;1.90;;;1.80;;
4268;SDS011;2148;48.554;7.834;2022-09-27T00:54:47;2.20;;;1.70;;
4268;SDS011;2148;48.554;7.834;2022-09-27T00:57:15;1.70;;;1.43;;
4268;SDS011;2148;48.554;7.834;2022-09-27T00:59:42;4.10;;;1.60;;
4268;SDS011;2148;48.554;7.834;2022-09-27T01:02:10;1.63;;;1.53;;
4268;SDS011;2148;48.554;7.834;2022-09-27T01:04:36;2.03;;;1.67;;
4268;SDS011;2148;48.554;7.834;2022-09-27T01:07:02;2.97;;;1.90;;
4268;SDS011;2148;48.554;7.834;2022-09-27T01:09:27;3.20;;;1.83;;
4268;SDS011;2148;48.554;7.834;2022-09-27T01:11:55;2.20;;;2.00;;
4268;SDS011;2148;48.554;7.834;2022-09-27T01:14:31;1.80;;;1.70;;
4268;SDS011;2148;48.554;7.834;2022-09-27T01:28:08;3.30;;;1.90;;
4268;SDS011;2148;48.554;7.834;2022-09-27T01:33:36;1.47;;;1.37;;
4268;SDS011;2148;48.554;7.834;2022-09-27T01:36:19;1.70;;;1.23;;
4268;SDS011;2148;48.554;7.834;2022-09-27T01:41:33;1.97;;;1.30;;
4268;SDS011;2148;48.554;7.834;2022-09-27T01:46:34;2.30;;;1.53;;
4268;SDS011;2148;48.554;7.834;2022-09-27T01:49:04;2.93;;;1.50;;
4268;SDS011;2148;48.554;7.834;2022-09-27T01:51:38;1.70;;;1.60;;
4268;SDS011;2148;48.554;7.834;2022-09-27T01:54:06;2.30;;;1.57;;
4268;SDS011;2148;48.554;7.834;2022-09-27T01:56:36;3.30;;;1.90;;
4268;SDS011;2148;48.554;7.834;2022-09-27T02:01:38;3.93;;;1.67;;
4268;SDS011;2148;48.554;7.834;2022-09-27T02:04:06;3.30;;;1.87;;
4268;SDS011;2148;48.554;7.834;2022-09-27T02:06:34;2.73;;;1.80;;
4268;SDS011;2148;48.554;7.834;2022-09-27T02:11:34;2.57;;;1.80;;
4268;SDS011;2148;48.554;7.834;2022-09-27T02:14:02;2.30;;;1.60;;
4268;SDS011;2148;48.554;7.834;2022-09-27T02:25:13;2.40;;;1.80;;
4268;SDS011;2148;48.554;7.834;2022-09-27T02:27:48;2.30;;;1.77;;
4268;SDS011;2148;48.554;7.834;2022-09-27T02:30:18;4.60;;;2.07;;
4268;SDS011;2148;48.554;7.834;2022-09-27T02:32:44;4.73;;;2.40;;
4268;SDS011;2148;48.554;7.834;2022-09-27T02:35:19;3.00;;;2.10;;
4268;SDS011;2148;48.554;7.834;2022-09-27T02:37:49;4.00;;;2.43;;
4268;SDS011;2148;48.554;7.834;2022-09-27T02:40:15;5.00;;;2.30;;
4268;SDS011;2148;48.554;7.834;2022-09-27T02:42:40;3.27;;;2.40;;
4268;SDS011;2148;48.554;7.834;2022-09-27T02:45:07;3.33;;;2.27;;
4268;SDS011;2148;48.554;7.834;2022-09-27T03:00:18;6.83;;;2.67;;
4268;SDS011;2148;48.554;7.834;2022-09-27T03:05:50;6.53;;;3.43;;
4268;SDS011;2148;48.554;7.834;2022-09-27T03:08:18;7.47;;;2.83;;
4268;SDS011;2148;48.554;7.834;2022-09-27T03:10:44;5.87;;;3.07;;
4268;SDS011;2148;48.554;7.834;2022-09-27T03:13:09;10.77;;;3.47;;
4268;SDS011;2148;48.554;7.834;2022-09-27T03:15:34;8.17;;;3.17;;
4268;SDS011;2148;48.554;7.834;2022-09-27T03:18:00;6.33;;;3.23;;
4268;SDS011;2148;48.554;7.834;2022-09-27T03:20:25;5.90;;;2.93;;
4268;SDS011;2148;48.554;7.834;2022-09-27T03:22:50;4.33;;;2.80;;
4268;SDS011;2148;48.554;7.834;2022-09-27T03:25:16;4.63;;;2.50;;
4268;SDS011;2148;48.554;7.834;2022-09-27T03:27:42;3.90;;;2.13;;
4268;SDS011;2148;48.554;7.834;2022-09-27T03:30:08;4.90;;;2.60;;
4268;SDS011;2148;48.554;7.834;2022-09-27T03:32:34;6.67;;;2.77;;
4268;SDS011;2148;48.554;7.834;2022-09-27T03:35:00;4.90;;;2.47;;
4268;SDS011;2148;48.554;7.834;2022-09-27T03:37:25;4.47;;;2.80;;
4268;SDS011;2148;48.554;7.834;2022-09-27T03:39:53;6.80;;;2.70;;
4268;SDS011;2148;48.554;7.834;2022-09-27T03:42:18;3.83;;;2.40;;
4268;SDS011;2148;48.554;7.834;2022-09-27T03:44:43;8.47;;;3.43;;
4268;SDS011;2148;48.554;7.834;2022-09-27T03:47:09;7.93;;;3.77;;
4268;SDS011;2148;48.554;7.834;2022-09-27T03:49:34;7.07;;;2.40;;
4268;SDS011;2148;48.554;7.834;2022-09-27T03:51:59;5.27;;;2.87;;
4268;SDS011;2148;48.554;7.834;2022-09-27T03:54:25;3.47;;;2.27;;
4268;SDS011;2148;48.554;7.834;2022-09-27T03:56:50;4.17;;;2.37;;
4268;SDS011;2148;48.554;7.834;2022-09-27T03:59:16;3.97;;;2.17;;
4268;SDS011;2148;48.554;7.834;2022-09-27T04:01:41;3.60;;;2.30;;
4268;SDS011;2148;48.554;7.834;2022-09-27T04:04:08;3.87;;;2.00;;
4268;SDS011;2148;48.554;7.834;2022-09-27T04:06:34;3.30;;;2.07;;
4268;SDS011;2148;48.554;7.834;2022-09-27T04:09:00;2.50;;;1.70;;
4268;SDS011;2148;48.554;7.834;2022-09-27T04:11:25;2.30;;;1.83;;
4268;SDS011;2148;48.554;7.834;2022-09-27T04:13:50;3.10;;;2.13;;
4268;SDS011;2148;48.554;7.834;2022-09-27T04:16:15;2.43;;;1.43;;
4268;SDS011;2148;48.554;7.834;2022-09-27T04:18:41;1.90;;;1.50;;
4268;SDS011;2148;48.554;7.834;2022-09-27T04:21:07;1.97;;;1.43;;
4268;SDS011;2148;48.554;7.834;2022-09-27T04:23:33;1.50;;;1.40;;
4268;SDS011;2148;48.554;7.834;2022-09-27T04:25:58;2.83;;;1.53;;
4268;SDS011;2148;48.554;7.834;2022-09-27T04:28:24;2.50;;;1.70;;
4268;SDS011;2148;48.554;7.834;2022-09-27T04:30:49;2.40;;;1.63;;
4268;SDS011;2148;48.554;7.834;2022-09-27T04:33:14;2.67;;;1.73;;
4268;SDS011;2148;48.554;7.834;2022-09-27T04:35:39;2.77;;;1.60;;
4268;SDS011;2148;48.554;7.834;2022-09-27T04:38:25;2.60;;;1.67;;
4268;SDS011;2148;48.554;7.834;2022-09-27T04:40:50;4.80;;;1.70;;
4268;SDS011;2148;48.554;7.834;2022-09-27T04:43:15;2.60;;;1.80;;
4268;SDS011;2148;48.554;7.834;2022-09-27T04:45:44;3.50;;;2.00;;
4268;SDS011;2148;48.554;7.834;2022-09-27T04:48:09;5.30;;;2.20;;
4268;SDS011;2148;48.554;7.834;2022-09-27T04:50:34;2.73;;;1.60;;
4268;SDS011;2148;48.554;7.834;2022-09-27T04:53:00;2.30;;;1.63;;
4268;SDS011;2148;48.554;7.834;2022-09-27T04:55:25;3.00;;;1.87;;
4268;SDS011;2148;48.554;7.834;2022-09-27T04:57:51;3.40;;;1.83;;
4268;SDS011;2148;48.554;7.834;2022-09-27T05:00:17;1.70;;;1.33;;
4268;SDS011;2148;48.554;7.834;2022-09-27T05:02:43;2.23;;;1.43;;
4268;SDS011;2148;48.554;7.834;2022-09-27T05:05:08;1.93;;;1.40;;
4268;SDS011;2148;48.554;7.834;2022-09-27T05:07:34;2.53;;;1.37;;
4268;SDS011;2148;48.554;7.834;2022-09-27T05:09:59;2.33;;;1.20;;
4268;SDS011;2148;48.554;7.834;2022-09-27T05:12:25;2.57;;;1.30;;
4268;SDS011;2148;48.554;7.834;2022-09-27T05:14:51;1.40;;;1.30;;
4268;SDS011;2148;48.554;7.834;2022-09-27T05:17:16;1.87;;;1.43;;
4268;SDS011;2148;48.554;7.834;2022-09-27T05:19:42;1.60;;;1.33;;
4268;SDS011;2148;48.554;7.834;2022-09-27T05:22:08;2.47;;;1.40;;
4268;SDS011;2148;48.554;7.834;2022-09-27T05:24:33;1.57;;;1.47;;
4268;SDS011;2148;48.554;7.834;2022-09-27T05:26:59;3.00;;;1.30;;
4268;SDS011;2148;48.554;7.834;2022-09-27T05:29:25;2.53;;;1.40;;
4268;SDS011;2148;48.554;7.834;2022-09-27T05:31:50;2.23;;;1.40;;
4268;SDS011;2148;48.554;7.834;2022-09-27T05:34:16;1.30;;;1.20;;
4268;SDS011;2148;48.554;7.834;2022-09-27T05:36:42;1.83;;;1.27;;
4268;SDS011;2148;48.554;7.834;2022-09-27T05:39:07;1.37;;;1.27;;
4268;SDS011;2148;48.554;7.834;2022-09-27T05:41:32;1.60;;;1.50;;
4268;SDS011;2148;48.554;7.834;2022-09-27T05:43:58;1.53;;;1.43;;
4268;SDS011;2148;48.554;7.834;2022-09-27T05:46:23;1.53;;;1.40;;
4268;SDS011;2148;48.554;7.834;2022-09-27T05:48:48;1.53;;;1.30;;
4268;SDS011;2148;48.554;7.834;2022-09-27T05:51:14;1.80;;;1.40;;
4268;SDS011;2148;48.554;7.834;2022-09-27T05:53:39;2.17;;;1.50;;
4268;SDS011;2148;48.554;7.834;2022-09-27T05:56:04;2.97;;;1.40;;
4268;SDS011;2148;48.554;7.834;2022-09-27T05:58:30;2.13;;;1.40;;
4268;SDS011;2148;48.554;7.834;2022-09-27T06:00:55;1.57;;;1.30;;
4268;SDS011;2148;48.554;7.834;2022-09-27T06:03:20;2.20;;;1.37;;
4268;SDS011;2148;48.554;7.834;2022-09-27T06:05:45;1.50;;;1.40;;
4268;SDS011;2148;48.554;7.834;2022-09-27T06:08:12;1.43;;;1.30;;
4268;SDS011;2148;48.554;7.834;2022-09-27T06:10:38;2.50;;;1.70;;
4268;SDS011;2148;48.554;7.834;2022-09-27T06:13:05;2.50;;;1.57;;
4268;SDS011;2148;48.554;7.834;2022-09-27T06:15:32;2.83;;;1.50;;
4268;SDS011;2148;48.554;7.834;2022-09-27T06:18:02;1.67;;;1.50;;
4268;SDS011;2148;48.554;7.834;2022-09-27T06:20:29;3.83;;;1.90;;
4268;SDS011;2148;48.554;7.834;2022-09-27T06:22:55;2.63;;;1.90;;
4268;SDS011;2148;48.554;7.834;2022-09-27T06:25:27;3.00;;;1.53;;
4268;SDS011;2148;48.554;7.834;2022-09-27T06:27:52;2.33;;;1.90;;
4268;SDS011;2148;48.554;7.834;2022-09-27T06:30:18;2.20;;;1.90;;
4268;SDS011;2148;48.554;7.834;2022-09-27T06:32:43;2.53;;;1.70;;
4268;SDS011;2148;48.554;7.834;2022-09-27T06:35:08;2.47;;;2.07;;
4268;SDS011;2148;48.554;7.834;2022-09-27T06:37:33;3.47;;;2.00;;
4268;SDS011;2148;48.554;7.834;2022-09-27T06:39:59;3.37;;;2.00;;
4268;SDS011;2148;48.554;7.834;2022-09-27T06:42:25;6.70;;;2.30;;
4268;SDS011;2148;48.554;7.834;2022-09-27T06:44:51;2.70;;;2.00;;
4268;SDS011;2148;48.554;7.834;2022-09-27T06:47:18;3.43;;;2.13;;
4268;SDS011;2148;48.554;7.834;2022-09-27T06:49:43;3.53;;;2.30;;
4268;SDS011;2148;48.554;7.834;2022-09-27T06:52:08;2.33;;;1.90;;
4268;SDS011;2148;48.554;7.834;2022-09-27T06:54:34;2.57;;;1.80;;
4268;SDS011;2148;48.554;7.834;2022-09-27T06:57:00;2.70;;;1.50;;
4268;SDS011;2148;48.554;7.834;2022-09-27T06:59:25;2.93;;;1.63;;
4268;SDS011;2148;48.554;7.834;2022-09-27T07:02:09;2.23;;;2.07;;
4268;SDS011;2148;48.554;7.834;2022-09-27T07:04:34;2.63;;;2.30;;
4268;SDS011;2148;48.554;7.834;2022-09-27T07:06:59;3.00;;;2.10;;
4268;SDS011;2148;48.554;7.834;2022-09-27T07:09:24;2.20;;;1.43;;
4268;SDS011;2148;48.554;7.834;2022-09-27T07:11:50;2.27;;;1.90;;
4268;SDS011;2148;48.554;7.834;2022-09-27T07:14:15;1.97;;;1.70;;
4268;SDS011;2148;48.554;7.834;2022-09-27T07:16:41;2.10;;;1.77;;
4268;SDS011;2148;48.554;7.834;2022-09-27T07:19:07;2.87;;;1.97;;
4268;SDS011;2148;48.554;7.834;2022-09-27T07:21:32;1.90;;;1.70;;
4268;SDS011;2148;48.554;7.834;2022-09-27T07:23:58;1.97;;;1.70;;
4268;SDS011;2148;48.554;7.834;2022-09-27T07:26:23;2.93;;;2.00;;
4268;SDS011;2148;48.554;7.834;2022-09-27T07:28:48;1.83;;;1.73;;
4268;SDS011;2148;48.554;7.834;2022-09-27T07:31:13;5.87;;;2.43;;
4268;SDS011;2148;48.554;7.834;2022-09-27T07:33:39;2.43;;;2.10;;
4268;SDS011;2148;48.554;7.834;2022-09-27T07:36:11;3.60;;;2.60;;
4268;SDS011;2148;48.554;7.834;2022-09-27T07:38:37;2.30;;;1.80;;
4268;SDS011;2148;48.554;7.834;2022-09-27T07:41:06;2.43;;;1.97;;
4268;SDS011;2148;48.554;7.834;2022-09-27T07:43:32;2.83;;;1.67;;
4268;SDS011;2148;48.554;7.834;2022-09-27T07:45:57;2.47;;;1.70;;
4268;SDS011;2148;48.554;7.834;2022-09-27T07:48:22;2.07;;;1.70;;
4268;SDS011;2148;48.554;7.834;2022-09-27T07:50:47;4.00;;;2.33;;
4268;SDS011;2148;48.554;7.834;2022-09-27T07:53:12;4.63;;;2.00;;
4268;SDS011;2148;48.554;7.834;2022-09-27T07:55:39;2.97;;;2.33;;
4268;SDS011;2148;48.554;7.834;2022-09-27T07:58:06;5.60;;;2.13;;
4268;SDS011;2148;48.554;7.834;2022-09-27T08:00:33;3.37;;;2.40;;
4268;SDS011;2148;48.554;7.834;2022-09-27T08:03:02;2.33;;;2.03;;
4268;SDS011;2148;48.554;7.834;2022-09-27T08:05:40;2.87;;;2.30;;
4268;SDS011;2148;48.554;7.834;2022-09-27T08:08:06;4.80;;;2.43;;
4268;SDS011;2148;48.554;7.834;2022-09-27T08:10:32;3.17;;;2.47;;
4268;SDS011;2148;48.554;7.834;2022-09-27T08:12:58;2.43;;;2.23;;
4268;SDS011;2148;48.554;7.834;2022-09-27T08:15:25;2.50;;;2.30;;
4268;SDS011;2148;48.554;7.834;2022-09-27T08:17:51;4.73;;;2.20;;
4268;SDS011;2148;48.554;7.834;2022-09-27T08:20:17;3.07;;;2.10;;
4268;SDS011;2148;48.554;7.834;2022-09-27T08:22:42;4.03;;;2.40;;
4268;SDS011;2148;48.554;7.834;2022-09-27T08:25:08;2.87;;;2.33;;
4268;SDS011;2148;48.554;7.834;2022-09-27T08:27:33;2.30;;;2.10;;
4268;SDS011;2148;48.554;7.834;2022-09-27T08:29:59;4.50;;;2.47;;
4268;SDS011;2148;48.554;7.834;2022-09-27T08:32:24;3.80;;;2.50;;
4268;SDS011;2148;48.554;7.834;2022-09-27T08:34:50;4.07;;;2.30;;
4268;SDS011;2148;48.554;7.834;2022-09-27T08:37:15;2.63;;;2.13;;
4268;SDS011;2148;48.554;7.834;2022-09-27T08:39:40;4.00;;;2.27;;
4268;SDS011;2148;48.554;7.834;2022-09-27T08:42:12;4.27;;;2.33;;
4268;SDS011;2148;48.554;7.834;2022-09-27T08:45:12;6.83;;;2.70;;
4268;SDS011;2148;48.554;7.834;2022-09-27T08:47:43;3.30;;;2.20;;
4268;SDS011;2148;48.554;7.834;2022-09-27T08:58:24;2.93;;;2.40;;
4268;SDS011;2148;48.554;7.834;2022-09-27T09:01:01;3.70;;;2.30;;
4268;SDS011;2148;48.554;7.834;2022-09-27T09:03:28;4.57;;;2.50;;
4268;SDS011;2148;48.554;7.834;2022-09-27T09:06:00;2.83;;;1.90;;
4268;SDS011;2148;48.554;7.834;2022-09-27T09:08:47;3.77;;;2.17;;
4268;SDS011;2148;48.554;7.834;2022-09-27T09:11:20;3.03;;;2.20;;
4268;SDS011;2148;48.554;7.834;2022-09-27T09:14:21;4.83;;;2.40;;
4268;SDS011;2148;48.554;7.834;2022-09-27T09:31:03;3.53;;;2.37;;
4268;SDS011;2148;48.554;7.834;2022-09-27T09:33:51;2.33;;;1.90;;
4268;SDS011;2148;48.554;7.834;2022-09-27T09:36:22;3.20;;;2.10;;
4268;SDS011;2148;48.554;7.834;2022-09-27T09:39:19;2.00;;;1.80;;
4268;SDS011;2148;48.554;7.834;2022-09-27T09:44:29;2.00;;;1.80;;
4268;SDS011;2148;48.554;7.834;2022-09-27T09:46:57;2.23;;;1.70;;
4268;SDS011;2148;48.554;7.834;2022-09-27T09:49:26;1.67;;;1.57;;
4268;SDS011;2148;48.554;7.834;2022-09-27T09:51:55;3.30;;;1.70;;
4268;SDS011;2148;48.554;7.834;2022-09-27T09:57:36;1.70;;;1.60;;
4268;SDS011;2148;48.554;7.834;2022-09-27T10:00:17;4.97;;;2.37;;
4268;SDS011;2148;48.554;7.834;2022-09-27T10:02:43;4.87;;;2.20;;
4268;SDS011;2148;48.554;7.834;2022-09-27T10:05:43;2.90;;;2.03;;
4268;SDS011;2148;48.554;7.834;2022-09-27T10:08:03;2.20;;;2.00;;
4268;SDS011;2148;48.554;7.834;2022-09-27T10:10:30;3.73;;;2.13;;
4268;SDS011;2148;48.554;7.834;2022-09-27T10:12:55;2.40;;;1.80;;
4268;SDS011;2148;48.554;7.834;2022-09-27T10:15:22;2.40;;;1.87;;
4268;SDS011;2148;48.554;7.834;2022-09-27T10:17:50;1.93;;;1.80;;
4268;SDS011;2148;48.554;7.834;2022-09-27T10:20:25;2.33;;;1.70;;
4268;SDS011;2148;48.554;7.834;2022-09-27T10:22:56;2.40;;;1.77;;
4268;SDS011;2148;48.554;7.834;2022-09-27T10:25:25;2.27;;;1.50;;
4268;SDS011;2148;48.554;7.834;2022-09-27T10:28:09;3.90;;;2.03;;
4268;SDS011;2148;48.554;7.834;2022-09-27T10:30:35;1.90;;;1.50;;
4268;SDS011;2148;48.554;7.834;2022-09-27T10:33:03;3.43;;;1.97;;
4268;SDS011;2148;48.554;7.834;2022-09-27T10:35:35;2.23;;;1.93;;
4268;SDS011;2148;48.554;7.834;2022-09-27T10:38:18;2.63;;;1.90;;
4268;SDS011;2148;48.554;7.834;2022-09-27T10:40:46;2.90;;;1.93;;
4268;SDS011;2148;48.554;7.834;2022-09-27T10:48:32;1.97;;;1.50;;
4268;SDS011;2148;48.554;7.834;2022-09-27T10:50:58;2.47;;;1.67;;
4268;SDS011;2148;48.554;7.834;2022-09-27T10:53:31;2.43;;;1.60;;
4268;SDS011;2148;48.554;7.834;2022-09-27T10:55:58;1.90;;;1.67;;
4268;SDS011;2148;48.554;7.834;2022-09-27T10:58:29;2.20;;;1.60;;
4268;SDS011;2148;48.554;7.834;2022-09-27T11:03:26;2.10;;;1.60;;
4268;SDS011;2148;48.554;7.834;2022-09-27T11:05:53;1.70;;;1.40;;
4268;SDS011;2148;48.554;7.834;2022-09-27T11:11:14;5.00;;;2.23;;
4268;SDS011;2148;48.554;7.834;2022-09-27T11:14:01;1.40;;;1.30;;
4268;SDS011;2148;48.554;7.834;2022-09-27T11:33:17;2.27;;;1.90;;
4268;SDS011;2148;48.554;7.834;2022-09-27T11:41:34;4.53;;;2.13;;
4268;SDS011;2148;48.554;7.834;2022-09-27T11:44:51;9.13;;;1.90;;
4268;SDS011;2148;48.554;7.834;2022-09-27T11:47:15;3.00;;;1.50;;
4268;SDS011;2148;48.554;7.834;2022-09-27T11:52:28;2.47;;;1.30;;
4268;SDS011;2148;48.554;7.834;2022-09-27T11:55:19;2.00;;;1.37;;
4268;SDS011;2148;48.554;7.834;2022-09-27T12:00:45;2.70;;;1.47;;
4268;SDS011;2148;48.554;7.834;2022-09-27T12:03:49;3.40;;;3.10;;
4268;SDS011;2148;48.554;7.834;2022-09-27T12:06:38;1.37;;;1.27;;
4268;SDS011;2148;48.554;7.834;2022-09-27T12:09:09;1.30;;;1.20;;
4268;SDS011;2148;48.554;7.834;2022-09-27T12:11:40;1.73;;;1.50;;
4268;SDS011;2148;48.554;7.834;2022-09-27T12:14:19;2.23;;;1.50;;
4268;SDS011;2148;48.554;7.834;2022-09-27T12:16:51;1.53;;;1.30;;
4268;SDS011;2148;48.554;7.834;2022-09-27T12:19:19;1.73;;;1.30;;
4268;SDS011;2148;48.554;7.834;2022-09-27T12:21:48;2.20;;;1.13;;
4268;SDS011;2148;48.554;7.834;2022-09-27T12:24:18;1.40;;;1.23;;
4268;SDS011;2148;48.554;7.834;2022-09-27T12:26:45;1.20;;;1.10;;
4268;SDS011;2148;48.554;7.834;2022-09-27T12:32:12;1.10;;;1.10;;
4268;SDS011;2148;48.554;7.834;2022-09-27T12:35:26;1.33;;;1.10;;
4268;SDS011;2148;48.554;7.834;2022-09-27T12:37:47;1.23;;;1.13;;
4268;SDS011;2148;48.554;7.834;2022-09-27T12:40:20;1.40;;;1.30;;
4268;SDS011;2148;48.554;7.834;2022-09-27T12:43:09;1.10;;;1.10;;
4268;SDS011;2148;48.554;7.834;2022-09-27T12:46:10;1.67;;;1.20;;
4268;SDS011;2148;48.554;7.834;2022-09-27T12:51:08;1.60;;;1.50;;
4268;SDS011;2148;48.554;7.834;2022-09-27T12:59:02;2.03;;;1.20;;
4268;SDS011;2148;48.554;7.834;2022-09-27T13:09:49;1.43;;;1.20;;
4268;SDS011;2148;48.554;7.834;2022-09-27T13:12:23;3.60;;;1.53;;
4268;SDS011;2148;48.554;7.834;2022-09-27T13:14:57;1.40;;;1.30;;
4268;SDS011;2148;48.554;7.834;2022-09-27T13:30:53;3.70;;;2.10;;
4268;SDS011;2148;48.554;7.834;2022-09-27T13:33:20;2.07;;;1.60;;
4268;SDS011;2148;48.554;7.834;2022-09-27T13:36:06;2.80;;;1.40;;
4268;SDS011;2148;48.554;7.834;2022-09-27T13:38:33;3.43;;;2.63;;
4268;SDS011;2148;48.554;7.834;2022-09-27T13:41:14;2.93;;;1.87;;
4268;SDS011;2148;48.554;7.834;2022-09-27T13:46:42;2.60;;;1.40;;
4268;SDS011;2148;48.554;7.834;2022-09-27T13:49:13;3.10;;;2.33;;
4268;SDS011;2148;48.554;7.834;2022-09-27T13:52:02;1.50;;;1.40;;
4268;SDS011;2148;48.554;7.834;2022-09-27T13:54:35;1.20;;;1.10;;
4268;SDS011;2148;48.554;7.834;2022-09-27T13:57:37;1.93;;;1.10;;
4268;SDS011;2148;48.554;7.834;2022-09-27T14:00:16;2.30;;;1.70;;
4268;SDS011;2148;48.554;7.834;2022-09-27T14:02:50;1.87;;;1.27;;
4268;SDS011;2148;48.554;7.834;2022-09-27T14:05:19;1.10;;;1.00;;
4268;SDS011;2148;48.554;7.834;2022-09-27T14:07:48;5.13;;;1.50;;
4268;SDS011;2148;48.554;7.834;2022-09-27T14:10:15;1.67;;;1.10;;
4268;SDS011;2148;48.554;7.834;2022-09-27T14:12:42;4.40;;;1.50;;
4268;SDS011;2148;48.554;7.834;2022-09-27T14:15:08;2.60;;;1.30;;
4268;SDS011;2148;48.554;7.834;2022-09-27T14:17:40;2.30;;;1.37;;
4268;SDS011;2148;48.554;7.834;2022-09-27T14:20:27;1.80;;;1.50;;
4268;SDS011;2148;48.554;7.834;2022-09-27T14:23:21;1.40;;;1.20;;
4268;SDS011;2148;48.554;7.834;2022-09-27T14:25:48;1.63;;;1.20;;
4268;SDS011;2148;48.554;7.834;2022-09-27T14:28:19;1.77;;;1.50;;
4268;SDS011;2148;48.554;7.834;2022-09-27T14:31:03;2.33;;;1.50;;
4268;SDS011;2148;48.554;7.834;2022-09-27T14:33:30;2.57;;;1.50;;
4268;SDS011;2148;48.554;7.834;2022-09-27T14:35:57;3.87;;;1.80;;
4268;SDS011;2148;48.554;7.834;2022-09-27T14:38:42;3.50;;;1.50;;
4268;SDS011;2148;48.554;7.834;2022-09-27T14:41:07;2.90;;;1.30;;
4268;SDS011;2148;48.554;7.834;2022-09-27T14:43:34;2.17;;;1.40;;
4268;SDS011;2148;48.554;7.834;2022-09-27T14:46:02;3.23;;;1.37;;
4268;SDS011;2148;48.554;7.834;2022-09-27T14:50:57;1.67;;;1.43;;
4268;SDS011;2148;48.554;7.834;2022-09-27T14:56:16;7.10;;;1.63;;
4268;SDS011;2148;48.554;7.834;2022-09-27T14:58:46;1.57;;;1.20;;
4268;SDS011;2148;48.554;7.834;2022-09-27T15:01:14;1.60;;;1.30;;
4268;SDS011;2148;48.554;7.834;2022-09-27T15:03:40;3.17;;;1.70;;
4268;SDS011;2148;48.554;7.834;2022-09-27T15:06:07;1.23;;;1.13;;
4268;SDS011;2148;48.554;7.834;2022-09-27T15:08:34;2.60;;;1.30;;
4268;SDS011;2148;48.554;7.834;2022-09-27T15:11:00;1.30;;;1.20;;
4268;SDS011;2148;48.554;7.834;2022-09-27T15:13:28;3.77;;;1.80;;
4268;SDS011;2148;48.554;7.834;2022-09-27T15:15:55;4.10;;;1.80;;
4268;SDS011;2148;48.554;7.834;2022-09-27T15:18:38;6.13;;;2.40;;
4268;SDS011;2148;48.554;7.834;2022-09-27T15:21:05;5.60;;;2.90;;
4268;SDS011;2148;48.554;7.834;2022-09-27T15:23:37;12.47;;;6.07;;
4268;SDS011;2148;48.554;7.834;2022-09-27T15:26:15;6.57;;;2.80;;
4268;SDS011;2148;48.554;7.834;2022-09-27T15:28:46;2.47;;;1.70;;
4268;SDS011;2148;48.554;7.834;2022-09-27T15:31:13;2.07;;;1.87;;
4268;SDS011;2148;48.554;7.834;2022-09-27T15:33:39;2.17;;;1.50;;
4268;SDS011;2148;48.554;7.834;2022-09-27T15:36:06;3.77;;;2.63;;
4268;SDS011;2148;48.554;7.834;2022-09-27T15:38:41;5.87;;;2.27;;
4268;SDS011;2148;48.554;7.834;2022-09-27T15:41:14;2.47;;;1.90;;
4268;SDS011;2148;48.554;7.834;2022-09-27T15:43:48;3.00;;;1.40;;
4268;SDS011;2148;48.554;7.834;2022-09-27T15:48:45;1.40;;;1.30;;
4268;SDS011;2148;48.554;7.834;2022-09-27T15:51:36;3.23;;;1.60;;
4268;SDS011;2148;48.554;7.834;2022-09-27T15:54:05;1.37;;;1.27;;
4268;SDS011;2148;48.554;7.834;2022-09-27T15:56:30;4.37;;;1.40;;
4268;SDS011;2148;48.554;7.834;2022-09-27T15:58:57;1.20;;;1.10;;
4268;SDS011;2148;48.554;7.834;2022-09-27T16:01:23;1.67;;;1.40;;
4268;SDS011;2148;48.554;7.834;2022-09-27T16:03:48;2.33;;;1.57;;
4268;SDS011;2148;48.554;7.834;2022-09-27T16:06:13;2.50;;;1.70;;
4268;SDS011;2148;48.554;7.834;2022-09-27T16:08:39;3.00;;;2.00;;
4268;SDS011;2148;48.554;7.834;2022-09-27T16:11:04;1.80;;;1.60;;
4268;SDS011;2148;48.554;7.834;2022-09-27T16:13:29;3.07;;;1.73;;
4268;SDS011;2148;48.554;7.834;2022-09-27T16:15:55;2.83;;;1.93;;
4268;SDS011;2148;48.554;7.834;2022-09-27T16:18:20;3.77;;;2.50;;
4268;SDS011;2148;48.554;7.834;2022-09-27T16:20:45;2.77;;;2.07;;
4268;SDS011;2148;48.554;7.834;2022-09-27T16:23:11;3.30;;;1.57;;
4268;SDS011;2148;48.554;7.834;2022-09-27T16:25:36;2.37;;;1.83;;
4268;SDS011;2148;48.554;7.834;2022-09-27T16:28:02;2.57;;;2.20;;
4268;SDS011;2148;48.554;7.834;2022-09-27T16:30:29;2.63;;;1.70;;
4268;SDS011;2148;48.554;7.834;2022-09-27T16:32:55;1.77;;;1.67;;
4268;SDS011;2148;48.554;7.834;2022-09-27T16:35:21;1.70;;;1.60;;
4268;SDS011;2148;48.554;7.834;2022-09-27T16:37:48;2.30;;;1.80;;
4268;SDS011;2148;48.554;7.834;2022-09-27T16:40:14;1.70;;;1.50;;
4268;SDS011;2148;48.554;7.834;2022-09-27T16:42:42;2.30;;;1.57;;
4268;SDS011;2148;48.554;7.834;2022-09-27T16:45:08;2.93;;;2.00;;
4268;SDS011;2148;48.554;7.834;2022-09-27T16:47:34;3.77;;;2.33;;
4268;SDS011;2148;48.554;7.834;2022-09-27T16:49:59;2.93;;;1.93;;
4268;SDS011;2148;48.554;7.834;2022-09-27T16:52:44;4.07;;;2.50;;
4268;SDS011;2148;48.554;7.834;2022-09-27T16:55:13;3.33;;;2.40;;
4268;SDS011;2148;48.554;7.834;2022-09-27T16:57:42;2.93;;;1.70;;
4268;SDS011;2148;48.554;7.834;2022-09-27T17:00:07;5.10;;;2.07;;
4268;SDS011;2148;48.554;7.834;2022-09-27T17:02:33;1.73;;;1.47;;
4268;SDS011;2148;48.554;7.834;2022-09-27T17:04:58;1.53;;;1.40;;
4268;SDS011;2148;48.554;7.834;2022-09-27T17:07:24;2.13;;;1.90;;
4268;SDS011;2148;48.554;7.834;2022-09-27T17:09:52;1.30;;;1.20;;
4268;SDS011;2148;48.554;7.834;2022-09-27T17:12:17;3.33;;;1.40;;
4268;SDS011;2148;48.554;7.834;2022-09-27T17:14:43;2.03;;;1.80;;
4268;SDS011;2148;48.554;7.834;2022-09-27T17:17:08;2.20;;;1.70;;
4268;SDS011;2148;48.554;7.834;2022-09-27T17:19:33;5.40;;;3.83;;
4268;SDS011;2148;48.554;7.834;2022-09-27T17:21:59;5.20;;;3.17;;
4268;SDS011;2148;48.554;7.834;2022-09-27T17:24:24;3.43;;;2.03;;
4268;SDS011;2148;48.554;7.834;2022-09-27T17:26:50;2.13;;;1.87;;
4268;SDS011;2148;48.554;7.834;2022-09-27T17:29:15;5.00;;;2.77;;
4268;SDS011;2148;48.554;7.834;2022-09-27T17:31:40;2.67;;;1.70;;
4268;SDS011;2148;48.554;7.834;2022-09-27T17:34:06;1.60;;;1.50;;
4268;SDS011;2148;48.554;7.834;2022-09-27T17:36:36;1.67;;;1.47;;
4268;SDS011;2148;48.554;7.834;2022-09-27T17:39:03;2.20;;;1.50;;
4268;SDS011;2148;48.554;7.834;2022-09-27T17:41:32;1.50;;;1.40;;
4268;SDS011;2148;48.554;7.834;2022-09-27T17:43:59;2.37;;;1.60;;
4268;SDS011;2148;48.554;7.834;2022-09-27T17:46:32;1.70;;;1.43;;
4268;SDS011;2148;48.554;7.834;2022-09-27T17:48:58;2.23;;;1.70;;
4268;SDS011;2148;48.554;7.834;2022-09-27T17:51:45;1.97;;;1.70;;
4268;SDS011;2148;48.554;7.834;2022-09-27T17:54:14;2.43;;;1.77;;
4268;SDS011;2148;48.554;7.834;2022-09-27T17:56:42;4.00;;;1.90;;
4268;SDS011;2148;48.554;7.834;2022-09-27T17:59:08;2.07;;;1.80;;
4268;SDS011;2148;48.554;7.834;2022-09-27T18:01:35;1.80;;;1.60;;
4268;SDS011;2148;48.554;7.834;2022-09-27T18:04:04;1.93;;;1.60;;
4268;SDS011;2148;48.554;7.834;2022-09-27T18:06:32;2.80;;;1.40;;
4268;SDS011;2148;48.554;7.834;2022-09-27T18:08:58;1.70;;;1.60;;